x

Galveston,tx - 22 Nm East Of Galveston, Tx (42035) Wave Buoy

1:00am - Sun 20th Aug 2017 All times are CDT. -5 hours from GMT.

  • Sig Wave height 1.3ft
  • Swell Direction
  • Peak Period 5s
  • Average Period 3s
  • Wind
    11mph, 13mph gusts
  • Sea Temp 87°f
  • Air Temp 86°f
  • Sea Pressure 1015.6mb
  • Galveston,tx -  22 Nm East Of Galveston, Tx
  • Galveston,tx -  22 Nm East Of Galveston, Tx

More Historic Weather Station data

Upgrade to MSW Pro to gain access to the past 30 days of data for over 8000 Wavebouys and Weather Stations around the globe.

Join

Comparision Forecast

View Surf forecast
   
Sun 08/20 1:00am 1.3ft 5s 3s 11 13 mph 1015.6mb 87f 86f
12:00am 1.6ft 4s 3s 11 13 mph 1015.7mb 88f 87f
Sat 08/19 11:00pm 1.3ft 5s 4s 13 16 mph 1014.9mb 89f 87f
10:00pm 1.3ft 5s 4s 13 16 mph 1014.5mb 89f 87f
9:00pm 1.3ft 5s 4s 11 13 mph 1014mb 90f 87f
8:00pm 1.3ft 5s 4s 11 13 mph 1013.4mb 91f 87f
7:00pm 1.3ft 5s 4s 9 11 mph 1013.5mb 91f 87f
6:00pm 1.3ft 5s 4s 7 9 mph 1014mb 91f 87f
5:00pm 1.3ft 5s 4s 4 7 mph 1014.7mb 90f 87f
4:00pm 1.6ft 5s 4s 2 4 mph 1015.3mb 90f 87f
3:00pm 1.6ft 4s 4s 2 4 mph 1015.9mb 89f 86f
2:00pm 2ft 5s 4s 4 7 mph 1016.3mb 88f 86f
1:00pm 2ft 5s 4s 7 7 mph 1016.6mb 88f 86f
12:00pm 2ft 4s 4s 7 9 mph 1016.8mb 87f 86f
11:00am 2ft 5s 4s 4 7 mph 1016.6mb 87f 86f
10:00am 2ft 4s 4s 7 9 mph 1016.6mb 87f 86f
9:00am 2.5ft 5s 4s 7 9 mph 1016.2mb 87f 86f
8:00am 2.5ft 6s 4s 9 11 mph 1015.6mb 87f 85f
7:00am 2.5ft 6s 4s 11 16 mph 1015.4mb 87f 85f
6:00am 2.5ft 5s 4s 11 16 mph 1015.1mb 87f 85f
5:00am 2.5ft 6s 4s 13 18 mph 1015mb 87f 85f
4:00am 2.5ft 6s 4s 16 18 mph 1015.3mb 87f 85f
3:00am 2.5ft 6s 4s 16 18 mph 1015.7mb 87f 86f
2:00am 2.5ft 6s 4s 16 18 mph 1016.1mb 87f 86f
1:00am 2.5ft 6s 4s 16 16 mph 1016mb 88f 86f
12:00am 2ft 6s 4s 13 16 mph 1015.8mb 88f 86f
Fri 08/18 11:00pm 2ft 7s 4s 13 16 mph 1015.4mb 88f 86f
10:00pm 2ft 6s 4s 13 16 mph 1015.4mb 88f 86f
9:00pm 2ft 7s 5s 9 11 mph 1015.5mb 88f 86f
8:00pm 2ft 7s 5s 11 13 mph 1014.9mb 89f 87f
7:00pm 2ft 6s 5s 9 11 mph 1015.1mb 89f 86f
6:00pm 2ft 7s 5s 7 11 mph 1015.5mb 89f 87f
5:00pm 2ft 6s 4s 4 7 mph 1016mb 89f 87f
4:00pm 2.5ft 6s 4s 4 7 mph 1016.4mb 89f 86f
3:00pm 2.5ft 7s 4s 4 7 mph 1016.9mb 88f 86f
2:00pm 2.5ft 7s 4s 7 9 mph 1017.5mb 88f 86f
1:00pm 2.5ft 5s 4s 4 7 mph 1017.8mb 87f 86f
12:00pm 2.5ft 4s 4s 4 7 mph 1018.1mb 87f 86f
11:00am 2.5ft 4s 4s 9 9 mph 1017.7mb 87f 86f
10:00am 2.5ft 5s 4s 9 11 mph 1017.1mb 87f 86f
9:00am 2.5ft 4s 4s 11 13 mph 1016.5mb 87f 86f
8:00am 3ft 4s 4s 13 16 mph 1016mb 87f 85f
7:00am 2.5ft 5s 4s 13 16 mph 1015.8mb 87f 85f
6:00am 2.5ft 6s 4s 13 16 mph 1015.6mb 87f 85f
5:00am 2.5ft 6s 4s 16 20 mph 1015.6mb 87f 85f
4:00am 2.5ft 6s 4s 13 16 mph 1016.2mb 87f 85f
3:00am 2.5ft 6s 4s 13 16 mph 1016.6mb 87f 85f
2:00am 2.5ft 7s 5s 13 16 mph 1016.7mb 87f 86f
1:00am 2.5ft 7s 4s 13 16 mph 1017.1mb 87f 86f
12:00am 3ft 7s 5s 11 13 mph 1017.1mb 87f 86f
Thu 08/17 11:00pm 3ft 7s 5s 9 11 mph 1016.6mb 87f 86f
10:00pm 3ft 7s 5s 13 16 mph 1015.5mb 87f 86f
9:00pm 3.5ft 7s 5s 13 16 mph 1014.8mb 87f 86f
8:00pm 3ft 7s 5s 11 13 mph 1015.2mb 88f 86f
7:00pm 3.5ft 7s 5s 9 11 mph 1015.8mb 88f 86f
6:00pm 3.5ft 8s 5s 9 11 mph 1016.1mb 88f 87f
5:00pm 3.5ft 8s 5s 9 11 mph 1016.8mb 88f 87f
4:00pm 3.5ft 6s 5s 11 11 mph 1017.7mb 88f 87f
3:00pm 3.5ft 7s 5s 9 13 mph 1017.9mb 88f 87f
1:50pm 3.5ft 7s 5s 9 13 mph 1017.9mb 88f 87f
1:00pm 4ft 8s 5s 9 11 mph 1018.4mb 87f 86f
12:00pm 4ft 5s 5s 11 11 mph 1018.3mb 87f 87f
10:50am 4ft 5s 5s 11 11 mph 1018.3mb 87f 87f
9:50am 4.5ft 6s 5s 13 16 mph 1017.8mb 87f 86f
8:50am 4.5ft 6s 5s 16 18 mph 1017.1mb 87f 87f
7:50am 4.5ft 5s 5s 18 20 mph 1016.6mb 87f 86f
6:50am 4.5ft 5s 5s 18 22 mph 1016.4mb 87f 86f
5:50am 4.5ft 5s 5s 18 22 mph 1015.7mb 87f 86f
4:50am 5ft 6s 5s 20 22 mph 1015.8mb 87f 86f
3:50am 4.5ft 5s 5s 20 25 mph 1015.7mb 87f 86f
2:50am 5ft 6s 5s 20 25 mph 1015.7mb 87f 86f
1:50am 5ft 7s 5s 20 25 mph 1015.5mb 87f 86f
12:50am 4.5ft 7s 5s 20 25 mph 1015.3mb 87f 86f
Wed 08/16 11:50pm 4.5ft 7s 4s 18 22 mph 1015.4mb 87f 86f
10:50pm 4.5ft 7s 5s 20 25 mph 1015.2mb 87f 86f
9:50pm 4ft 7s 5s 20 22 mph 1015.2mb 87f 86f
8:50pm 4.5ft 7s 5s 18 20 mph 1015.2mb 87f 87f
7:50pm 4.5ft 7s 5s 16 18 mph 1014.7mb 87f 86f
6:50pm 4.5ft 6s 5s 16 18 mph 1014.7mb 87f 87f
5:50pm 4ft 7s 5s 16 18 mph 1015mb 87f 87f
4:50pm 4.5ft 7s 5s 16 20 mph 1014.9mb 87f 87f
3:50pm 4.5ft 6s 5s 18 20 mph 1014.9mb 87f 87f
2:50pm 4ft 6s 5s 16 20 mph 1015.3mb 87f 87f
1:50pm 4.5ft 7s 5s 16 20 mph 1016mb 87f 87f
12:50pm 4.5ft 6s 5s 16 18 mph 1016.2mb 87f 87f
11:50am 4.5ft 7s 5s 16 20 mph 1016mb 87f 87f
10:50am 5ft 6s 5s 16 20 mph 1015.7mb 87f 87f
9:50am 4.5ft 6s 5s 18 22 mph 1015.5mb 87f 87f
8:50am 4.5ft 6s 5s 18 22 mph 1015.2mb 87f 87f
7:50am 4.5ft 6s 5s 18 22 mph 1014.5mb 87f 87f